createdAt,value
2022-10-24T00:04:18.578Z,96.30
2022-10-24T00:06:42.373Z,96.30
2022-10-24T00:09:18.630Z,96.30
2022-10-24T00:16:44.841Z,96.30
2022-10-24T00:18:51.769Z,96.30
2022-10-24T00:23:12.898Z,96.30
2022-10-24T00:27:49.760Z,96.30
2022-10-24T00:31:48.382Z,96.30
2022-10-24T00:33:51.653Z,96.30
2022-10-24T00:35:46.966Z,96.30
2022-10-24T00:37:32.395Z,96.30
2022-10-24T00:41:12.925Z,96.30
2022-10-24T00:45:04.623Z,96.30
2022-10-24T00:49:29.867Z,96.30
2022-10-24T00:51:49.134Z,96.30
2022-10-24T00:53:36.293Z,96.30
2022-10-24T00:54:56.118Z,96.30
2022-10-24T00:56:59.205Z,96.30
2022-10-24T00:59:33.926Z,96.30
2022-10-24T01:07:36.440Z,96.30
2022-10-24T01:12:12.822Z,96.30
2022-10-24T01:19:13.823Z,96.30
2022-10-24T01:21:48.724Z,96.30
2022-10-24T01:32:51.578Z,96.30
2022-10-24T01:37:09.493Z,96.30
2022-10-24T01:39:02.010Z,96.30
2022-10-24T01:41:16.693Z,96.30
2022-10-24T01:42:46.191Z,96.30
2022-10-24T01:46:41.804Z,96.30
2022-10-24T01:49:16.613Z,96.30
2022-10-24T01:50:56.852Z,96.30
2022-10-24T01:57:47.420Z,96.30
2022-10-24T02:00:08.405Z,96.30
2022-10-24T02:01:40.644Z,96.30
2022-10-24T02:03:21.106Z,96.30
2022-10-24T02:05:29.821Z,96.30
2022-10-24T02:07:47.493Z,96.30
2022-10-24T02:09:36.082Z,96.30
2022-10-24T02:11:14.078Z,96.30
2022-10-24T02:12:58.583Z,96.30
2022-10-24T02:14:30.845Z,96.30
2022-10-24T02:16:23.249Z,96.30
2022-10-24T02:17:46.148Z,96.30
2022-10-24T02:22:29.335Z,96.30
2022-10-24T02:27:18.032Z,96.30
2022-10-24T02:28:47.221Z,96.30
2022-10-24T02:30:40.934Z,96.30
2022-10-24T02:33:54.199Z,96.30
2022-10-24T02:36:05.305Z,96.30
2022-10-24T02:38:00.367Z,96.30
2022-10-24T02:39:28.858Z,96.30
2022-10-24T02:41:05.407Z,96.30
2022-10-24T02:43:20.205Z,96.30
2022-10-24T02:45:14.180Z,96.30
2022-10-24T02:47:05.194Z,96.30
2022-10-24T02:48:44.794Z,96.30
2022-10-24T02:50:22.857Z,96.30
2022-10-24T02:51:57.261Z,96.30
2022-10-24T02:53:52.141Z,96.30
2022-10-24T02:55:45.454Z,96.30
2022-10-24T02:57:39.601Z,96.30
2022-10-24T03:01:07.294Z,96.30
2022-10-24T03:02:52.668Z,96.30
2022-10-24T03:04:21.521Z,96.30
2022-10-24T03:06:09.492Z,96.30
2022-10-24T03:07:39.216Z,96.30
2022-10-24T03:09:04.265Z,96.30
2022-10-24T03:11:28.349Z,96.30
2022-10-24T03:13:05.010Z,96.30
2022-10-24T03:14:28.892Z,96.30
2022-10-24T03:18:28.000Z,96.30
2022-10-24T03:20:44.529Z,96.30
2022-10-24T03:23:12.308Z,96.30
2022-10-24T03:24:58.492Z,96.30
2022-10-24T03:27:44.664Z,96.30
2022-10-24T03:29:00.168Z,96.30
2022-10-24T03:30:06.544Z,96.30
2022-10-24T03:31:10.183Z,96.30
2022-10-24T03:32:15.286Z,96.30
2022-10-24T03:33:18.976Z,96.30
2022-10-24T03:34:21.587Z,96.30
2022-10-24T03:35:25.074Z,96.30
2022-10-24T03:36:28.540Z,96.30
2022-10-24T03:37:31.291Z,96.30
2022-10-24T03:38:34.813Z,96.30
2022-10-24T03:39:37.162Z,96.30
2022-10-24T03:40:40.687Z,96.30
2022-10-24T03:41:44.587Z,96.30
2022-10-24T03:42:48.358Z,96.30
2022-10-24T03:43:51.352Z,96.30
2022-10-24T03:44:54.766Z,96.30
2022-10-24T03:45:57.291Z,96.30
2022-10-24T03:47:00.854Z,96.30
2022-10-24T03:48:03.560Z,96.30
2022-10-24T03:49:09.064Z,96.30
2022-10-24T03:50:11.714Z,96.30
2022-10-24T03:51:15.575Z,96.30
2022-10-24T03:52:18.074Z,96.30
2022-10-24T03:53:21.700Z,96.30
2022-10-24T03:54:24.147Z,96.30
2022-10-24T03:55:33.345Z,96.30
2022-10-24T03:56:35.805Z,96.30
2022-10-24T03:57:40.842Z,96.30
2022-10-24T03:58:43.322Z,96.30
2022-10-24T03:59:47.099Z,96.30
2022-10-24T04:00:49.595Z,96.30
2022-10-24T04:01:53.119Z,96.30
2022-10-24T04:02:55.671Z,96.30
2022-10-24T04:03:59.075Z,96.30
2022-10-24T04:05:02.286Z,96.30
2022-10-24T04:06:06.004Z,96.30
2022-10-24T04:07:08.580Z,96.30
2022-10-24T04:08:12.076Z,96.30
2022-10-24T04:09:14.602Z,96.30
2022-10-24T04:10:17.985Z,96.30
2022-10-24T04:11:20.403Z,96.30
2022-10-24T04:12:24.125Z,96.30
2022-10-24T04:13:32.178Z,96.30
2022-10-24T04:14:34.786Z,96.30
2022-10-24T04:15:38.668Z,96.30
2022-10-24T04:16:43.663Z,96.30
2022-10-24T04:17:47.421Z,96.30
2022-10-24T04:18:50.519Z,96.30
2022-10-24T04:19:54.054Z,96.30
2022-10-24T04:20:58.446Z,96.30
2022-10-24T04:22:01.975Z,96.30
2022-10-24T04:23:04.811Z,96.30
2022-10-24T04:24:08.817Z,96.30
2022-10-24T04:25:11.316Z,96.30
2022-10-24T04:26:20.311Z,96.30
2022-10-24T04:27:22.557Z,96.30
2022-10-24T04:28:27.174Z,96.30
2022-10-24T04:29:30.905Z,96.30
2022-10-24T04:30:34.569Z,96.30
2022-10-24T04:31:37.109Z,96.30
2022-10-24T04:32:42.413Z,96.30
2022-10-24T04:33:47.387Z,96.30
2022-10-24T04:34:51.127Z,96.30
2022-10-24T04:35:57.619Z,96.30
2022-10-24T04:37:00.042Z,96.30
2022-10-24T04:38:03.558Z,96.30
2022-10-24T04:39:08.828Z,96.30
2022-10-24T04:40:13.092Z,96.30
2022-10-24T04:41:22.389Z,96.30
2022-10-24T04:42:25.813Z,96.30
2022-10-24T04:43:29.279Z,96.30
2022-10-24T04:44:33.262Z,96.30
2022-10-24T04:45:36.702Z,96.30
2022-10-24T04:46:39.265Z,96.30
2022-10-24T04:47:43.169Z,96.30
2022-10-24T04:48:45.856Z,96.30
2022-10-24T04:49:49.332Z,96.30
2022-10-24T04:50:52.168Z,96.30
2022-10-24T04:51:55.738Z,96.30
2022-10-24T04:52:58.410Z,96.30
2022-10-24T04:54:02.217Z,96.30
2022-10-24T04:55:05.577Z,96.30
2022-10-24T04:56:09.791Z,96.30
2022-10-24T04:57:12.449Z,96.30
2022-10-24T04:58:18.772Z,96.30
2022-10-24T04:59:21.388Z,96.30
2022-10-24T05:00:28.518Z,96.30
2022-10-24T05:01:30.970Z,96.30
2022-10-24T05:02:36.942Z,96.30
2022-10-24T05:03:39.597Z,96.30
2022-10-24T05:04:45.785Z,96.30
2022-10-24T05:05:48.506Z,96.30
2022-10-24T05:06:52.089Z,96.30
2022-10-24T05:07:54.869Z,96.30
2022-10-24T05:08:58.403Z,96.30
2022-10-24T05:10:00.875Z,96.30
2022-10-24T05:11:04.666Z,96.30
2022-10-24T05:12:07.276Z,96.30
2022-10-24T05:13:11.107Z,96.30
2022-10-24T05:14:16.391Z,96.30
2022-10-24T05:15:20.020Z,96.30
2022-10-24T05:16:23.835Z,96.30
2022-10-24T05:17:29.432Z,96.30
2022-10-24T05:18:31.887Z,96.30
2022-10-24T05:19:38.243Z,96.30
2022-10-24T05:21:49.662Z,96.30
2022-10-24T05:22:52.291Z,96.30
2022-10-24T05:23:55.753Z,96.30
2022-10-24T05:24:58.598Z,96.30
2022-10-24T05:26:02.352Z,96.30
2022-10-24T05:27:04.825Z,96.30
2022-10-24T05:28:08.299Z,96.30
2022-10-24T05:29:10.935Z,96.30
2022-10-24T05:30:15.236Z,96.30
2022-10-24T05:32:34.810Z,96.30
2022-10-24T05:33:40.802Z,96.30
2022-10-24T05:34:43.682Z,96.30
2022-10-24T05:35:47.339Z,96.30
2022-10-24T05:36:50.216Z,96.30
2022-10-24T05:37:56.594Z,96.30
2022-10-24T05:39:00.909Z,96.30
2022-10-24T05:40:04.722Z,96.30
2022-10-24T05:41:11.403Z,96.30
2022-10-24T05:42:29.837Z,96.30
2022-10-24T05:43:33.443Z,96.30
2022-10-24T05:44:38.797Z,96.30
2022-10-24T05:45:41.510Z,96.30
2022-10-24T05:46:55.193Z,96.30
2022-10-24T05:47:58.022Z,96.30
2022-10-24T05:49:01.829Z,96.30
2022-10-24T05:50:06.647Z,96.30
2022-10-24T05:51:09.161Z,96.30
2022-10-24T05:52:12.576Z,96.30
2022-10-24T05:53:15.306Z,96.30
2022-10-24T05:54:21.245Z,96.30
2022-10-24T05:55:25.212Z,96.30
2022-10-24T05:56:27.724Z,96.30
2022-10-24T05:57:33.505Z,96.30
2022-10-24T05:58:36.116Z,96.30
2022-10-24T05:59:39.545Z,96.30
2022-10-24T06:00:42.042Z,96.30
2022-10-24T06:01:46.953Z,96.30
2022-10-24T06:02:52.752Z,96.30
2022-10-24T06:03:58.024Z,96.30
2022-10-24T06:05:03.744Z,96.30
2022-10-24T06:06:08.907Z,96.30
2022-10-24T06:07:13.979Z,96.30
2022-10-24T06:08:17.876Z,96.30
2022-10-24T06:09:21.575Z,96.30
2022-10-24T06:10:26.543Z,96.30
2022-10-24T06:11:30.203Z,96.30
2022-10-24T06:12:33.180Z,96.30
2022-10-24T06:13:37.011Z,96.30
2022-10-24T06:14:40.485Z,96.30
2022-10-24T06:15:44.529Z,96.30
2022-10-24T06:16:49.372Z,96.30
2022-10-24T06:17:53.279Z,96.30
2022-10-24T06:18:55.998Z,96.30
2022-10-24T06:19:59.568Z,96.30
2022-10-24T06:21:04.211Z,96.30
2022-10-24T06:22:08.963Z,96.30
2022-10-24T06:23:12.710Z,96.30
2022-10-24T06:24:16.577Z,96.30
2022-10-24T06:25:19.189Z,96.30
2022-10-24T06:26:24.080Z,96.30
2022-10-24T06:27:26.846Z,96.30
2022-10-24T06:28:30.430Z,96.30
2022-10-24T06:29:35.964Z,96.30
2022-10-24T06:30:43.927Z,96.30
2022-10-24T06:31:47.755Z,96.30
2022-10-24T06:32:52.002Z,96.30
2022-10-24T06:33:58.595Z,96.30
2022-10-24T06:35:02.087Z,96.30
2022-10-24T06:36:10.455Z,96.30
2022-10-24T06:37:13.159Z,96.30
2022-10-24T06:38:18.863Z,96.30
2022-10-24T06:39:22.633Z,96.30
2022-10-24T06:40:29.157Z,96.30
2022-10-24T06:41:33.985Z,96.30
2022-10-24T06:42:37.481Z,96.30
2022-10-24T06:43:42.426Z,96.30
2022-10-24T06:44:46.012Z,96.30
2022-10-24T06:45:51.324Z,96.30
2022-10-24T06:46:56.795Z,96.30
2022-10-24T06:48:00.372Z,96.30
2022-10-24T06:49:03.326Z,96.30
2022-10-24T06:50:08.552Z,96.30
2022-10-24T06:51:16.149Z,96.30
2022-10-24T06:52:22.739Z,96.30
2022-10-24T06:53:25.551Z,96.30
2022-10-24T06:54:30.514Z,96.30
2022-10-24T06:55:34.191Z,96.30
2022-10-24T06:56:37.717Z,96.30
2022-10-24T06:57:42.364Z,96.30
2022-10-24T06:58:46.720Z,96.30
2022-10-24T06:59:49.117Z,96.30
2022-10-24T07:00:55.014Z,96.30
2022-10-24T07:02:05.801Z,96.30
2022-10-24T07:03:15.168Z,96.30
2022-10-24T07:04:21.136Z,96.30
2022-10-24T07:05:24.971Z,96.30
2022-10-24T07:06:30.391Z,96.30
2022-10-24T07:07:35.217Z,96.30
2022-10-24T07:08:40.454Z,96.30
2022-10-24T07:09:44.419Z,96.30
2022-10-24T07:10:47.175Z,96.30
2022-10-24T07:11:51.019Z,96.30
2022-10-24T07:12:56.722Z,96.30
2022-10-24T07:14:01.600Z,96.30
2022-10-24T07:15:07.736Z,96.30
2022-10-24T07:16:10.484Z,96.30
2022-10-24T07:17:15.590Z,96.30
2022-10-24T07:18:19.102Z,96.30
2022-10-24T07:19:21.757Z,96.30
2022-10-24T07:20:25.599Z,96.30
2022-10-24T07:21:31.582Z,96.30
2022-10-24T07:22:35.268Z,96.30
2022-10-24T07:23:40.169Z,96.30
2022-10-24T07:24:43.890Z,96.30
2022-10-24T07:25:47.007Z,96.30
2022-10-24T07:26:50.938Z,96.30
2022-10-24T07:27:54.839Z,96.30
2022-10-24T07:30:19.073Z,96.30
2022-10-24T07:31:25.985Z,96.30
2022-10-24T07:32:32.921Z,96.30
2022-10-24T07:33:39.336Z,96.30
2022-10-24T07:34:43.410Z,96.30
2022-10-24T07:35:47.159Z,96.30
2022-10-24T07:36:50.881Z,96.30
2022-10-24T07:37:53.950Z,96.30
2022-10-24T07:38:58.829Z,96.30
2022-10-24T07:40:01.426Z,96.30
2022-10-24T07:41:06.552Z,96.30
2022-10-24T07:42:10.460Z,96.30
2022-10-24T07:43:13.389Z,96.30
2022-10-24T07:44:17.163Z,96.30
2022-10-24T07:45:21.093Z,96.30
2022-10-24T07:46:24.416Z,96.30
2022-10-24T07:47:28.081Z,96.30
2022-10-24T07:48:33.055Z,96.30
2022-10-24T07:49:39.557Z,96.30
2022-10-24T07:50:46.369Z,96.30
2022-10-24T07:51:53.822Z,96.30
2022-10-24T07:53:00.368Z,96.30
2022-10-24T07:54:30.676Z,96.30
2022-10-24T07:55:41.686Z,96.30
2022-10-24T07:56:48.444Z,96.30
2022-10-24T07:57:51.188Z,96.30
2022-10-24T07:58:56.741Z,96.30
2022-10-24T08:00:00.797Z,96.30
2022-10-24T08:01:05.158Z,96.30
2022-10-24T08:02:10.798Z,96.30
2022-10-24T08:03:13.952Z,96.30
2022-10-24T08:04:18.904Z,96.30
2022-10-24T08:05:23.026Z,96.30
2022-10-24T08:06:33.046Z,96.30
2022-10-24T08:07:36.931Z,96.30
2022-10-24T08:08:52.014Z,96.30
2022-10-24T08:09:55.824Z,96.30
2022-10-24T08:11:10.630Z,96.30
2022-10-24T08:12:14.370Z,96.30
2022-10-24T08:13:21.020Z,96.30
2022-10-24T08:14:24.995Z,96.30
2022-10-24T08:15:27.923Z,96.30
2022-10-24T08:16:31.781Z,96.30
2022-10-24T08:17:36.491Z,96.30
2022-10-24T08:18:41.036Z,96.30
2022-10-24T08:19:46.036Z,96.30
2022-10-24T08:20:59.904Z,96.30
2022-10-24T08:22:03.444Z,96.30
2022-10-24T08:23:07.204Z,96.30
2022-10-24T08:24:10.539Z,96.30
2022-10-24T08:25:14.747Z,96.30
2022-10-24T08:26:21.610Z,96.30
2022-10-24T08:27:29.714Z,96.30
2022-10-24T08:28:53.640Z,96.30
2022-10-24T08:30:02.129Z,96.30
2022-10-24T08:31:09.126Z,96.30
2022-10-24T08:32:12.998Z,96.30
2022-10-24T08:33:18.731Z,96.30
2022-10-24T08:34:23.845Z,96.30
2022-10-24T08:35:30.506Z,96.30
2022-10-24T08:36:36.820Z,96.30
2022-10-24T08:37:39.854Z,96.30
2022-10-24T08:38:44.097Z,96.30
2022-10-24T08:39:48.323Z,96.30
2022-10-24T08:40:53.053Z,96.30
2022-10-24T08:42:00.457Z,96.30
2022-10-24T08:43:04.741Z,96.30
2022-10-24T08:44:20.995Z,96.30
2022-10-24T08:45:36.901Z,96.30
2022-10-24T08:46:51.368Z,96.30
2022-10-24T08:48:03.718Z,96.30
2022-10-24T08:49:18.194Z,96.30
2022-10-24T08:50:28.258Z,96.30
2022-10-24T08:51:40.405Z,96.30
2022-10-24T08:52:49.757Z,96.30
2022-10-24T08:53:56.328Z,96.30
2022-10-24T08:55:09.148Z,96.30
2022-10-24T08:56:14.060Z,96.30
2022-10-24T08:57:23.779Z,96.30
2022-10-24T08:58:30.398Z,96.30
2022-10-24T08:59:37.569Z,96.30
2022-10-24T09:00:45.330Z,96.30
2022-10-24T09:01:54.149Z,96.30
2022-10-24T09:03:04.191Z,96.30
2022-10-24T09:04:10.213Z,96.30
2022-10-24T09:05:25.673Z,96.30
2022-10-24T09:06:32.347Z,96.30
2022-10-24T09:07:35.989Z,96.30
2022-10-24T09:08:52.301Z,96.30
2022-10-24T09:10:09.118Z,96.30
2022-10-24T09:11:20.477Z,96.30
2022-10-24T09:12:24.796Z,96.30
2022-10-24T09:13:30.650Z,96.30
2022-10-24T09:14:38.669Z,96.30
2022-10-24T09:15:45.273Z,96.30
2022-10-24T09:16:54.690Z,96.30
2022-10-24T09:18:01.741Z,96.30
2022-10-24T09:19:04.613Z,96.30
2022-10-24T09:20:25.766Z,96.30
2022-10-24T09:21:28.927Z,95.90
2022-10-24T09:22:39.428Z,96.30
2022-10-24T09:23:48.402Z,96.30
2022-10-24T09:24:55.191Z,96.30
2022-10-24T09:26:00.068Z,96.30
2022-10-24T09:27:12.419Z,96.30
2022-10-24T09:28:16.728Z,96.30
2022-10-24T09:29:20.432Z,96.00
2022-10-24T09:30:32.999Z,95.70
2022-10-24T09:31:38.052Z,94.90
2022-10-24T09:32:44.106Z,94.40
2022-10-24T09:33:52.118Z,93.70
2022-10-24T09:34:56.374Z,92.50
2022-10-24T09:36:02.659Z,91.10
2022-10-24T09:37:06.308Z,90.10
2022-10-24T09:38:35.468Z,89.10
2022-10-24T09:39:39.083Z,87.90
2022-10-24T09:40:42.679Z,87.70
2022-10-24T09:41:47.335Z,86.80
2022-10-24T09:43:17.654Z,86.80
2022-10-24T09:44:35.321Z,87.50
2022-10-24T09:45:47.169Z,86.00
2022-10-24T09:46:53.515Z,86.50
2022-10-24T09:47:57.606Z,83.80
2022-10-24T09:49:06.270Z,82.60
2022-10-24T09:50:22.133Z,82.70
2022-10-24T09:51:34.979Z,83.40
2022-10-24T09:52:41.124Z,84.80
2022-10-24T09:54:06.560Z,80.90
2022-10-24T09:55:20.549Z,80.30
2022-10-24T09:56:33.443Z,79.00
2022-10-24T09:57:40.938Z,78.70
2022-10-24T09:58:44.760Z,78.00
2022-10-24T09:59:50.434Z,76.60
2022-10-24T10:01:03.332Z,77.10
2022-10-24T10:02:25.443Z,76.20
2022-10-24T10:03:28.635Z,73.60
2022-10-24T10:04:32.503Z,73.20
2022-10-24T10:05:48.070Z,72.30
2022-10-24T10:06:52.284Z,71.10
2022-10-24T10:07:54.868Z,71.00
2022-10-24T10:09:02.939Z,70.90
2022-10-24T10:10:23.990Z,70.60
2022-10-24T10:11:31.670Z,71.50
2022-10-24T10:12:39.085Z,71.10
2022-10-24T10:13:51.918Z,68.60
2022-10-24T10:14:55.337Z,68.10
2022-10-24T10:16:02.379Z,69.50
2022-10-24T10:17:07.047Z,68.60
2022-10-24T10:18:33.348Z,69.40
2022-10-24T10:19:40.987Z,68.60
2022-10-24T10:20:44.134Z,68.20
2022-10-24T10:21:59.799Z,67.80
2022-10-24T10:23:25.993Z,68.70
2022-10-24T10:24:40.838Z,69.10
2022-10-24T10:25:43.494Z,70.70
2022-10-24T10:26:49.565Z,70.70
2022-10-24T10:27:52.208Z,70.70
2022-10-24T10:29:03.180Z,70.50
2022-10-24T10:30:18.819Z,71.50
2022-10-24T10:31:27.497Z,71.80
2022-10-24T10:32:39.093Z,73.60
2022-10-24T10:33:57.676Z,73.60
2022-10-24T10:35:08.378Z,72.20
2022-10-24T10:36:18.175Z,72.20
2022-10-24T10:37:30.450Z,71.20
2022-10-24T10:38:49.416Z,71.20
2022-10-24T10:40:30.434Z,70.70
2022-10-24T10:41:49.495Z,71.10
2022-10-24T10:43:15.603Z,71.70
2022-10-24T10:44:36.071Z,69.70
2022-10-24T10:45:46.787Z,69.30
2022-10-24T10:47:07.372Z,70.20
2022-10-24T10:48:33.056Z,70.80
2022-10-24T10:50:55.612Z,70.30
2022-10-24T10:52:03.670Z,71.00
2022-10-24T10:53:24.794Z,71.10
2022-10-24T10:54:58.254Z,72.00
2022-10-24T10:56:16.294Z,71.50
2022-10-24T10:57:28.878Z,72.10
2022-10-24T10:58:45.282Z,72.10
2022-10-24T10:59:59.084Z,73.00
2022-10-24T11:01:17.195Z,73.00
2022-10-24T11:02:49.322Z,73.60
2022-10-24T11:04:06.729Z,74.20
2022-10-24T11:05:33.544Z,74.20
2022-10-24T11:06:52.620Z,75.00
2022-10-24T11:08:07.924Z,75.40
2022-10-24T11:09:34.892Z,75.70
2022-10-24T11:10:44.105Z,76.20
2022-10-24T11:11:56.322Z,76.30
2022-10-24T11:13:04.702Z,76.60
2022-10-24T11:14:23.159Z,76.90
2022-10-24T11:15:31.070Z,77.20
2022-10-24T11:16:36.122Z,77.20
2022-10-24T11:17:47.412Z,77.80
2022-10-24T11:18:54.172Z,77.70
2022-10-24T11:20:09.376Z,78.00
2022-10-24T11:21:15.668Z,78.00
2022-10-24T11:22:25.659Z,78.70
2022-10-24T11:23:37.104Z,79.20
2022-10-24T11:25:59.321Z,79.80
2022-10-24T11:27:12.189Z,80.10
2022-10-24T11:28:26.621Z,80.50
2022-10-24T11:29:38.316Z,81.10
2022-10-24T11:30:51.926Z,81.30
2022-10-24T11:31:59.932Z,81.90
2022-10-24T11:33:07.413Z,81.90
2022-10-24T11:34:17.325Z,81.80
2022-10-24T11:35:30.392Z,82.80
2022-10-24T11:36:42.243Z,83.10
2022-10-24T11:37:50.057Z,82.80
2022-10-24T11:39:02.659Z,83.30
2022-10-24T11:40:11.805Z,83.30
2022-10-24T11:41:35.390Z,83.60
2022-10-24T11:42:53.089Z,83.70
2022-10-24T11:43:59.922Z,83.70
2022-10-24T11:45:11.591Z,83.10
2022-10-24T11:46:20.930Z,82.90
2022-10-24T11:48:07.412Z,82.60
2022-10-24T11:49:21.617Z,82.60
2022-10-24T11:50:34.784Z,82.60
2022-10-24T11:51:44.843Z,82.90
2022-10-24T11:52:56.432Z,82.60
2022-10-24T11:54:03.381Z,82.90
2022-10-24T11:55:16.872Z,83.10
2022-10-24T11:56:31.185Z,83.10
2022-10-24T11:57:36.971Z,82.80
2022-10-24T11:58:56.290Z,82.60
2022-10-24T11:59:59.634Z,82.60
2022-10-24T12:01:35.025Z,82.60
2022-10-24T12:03:32.511Z,82.70
2022-10-24T12:05:28.726Z,82.70
2022-10-24T12:07:08.908Z,82.80
2022-10-24T12:08:45.297Z,83.50
2022-10-24T12:10:17.557Z,83.10
2022-10-24T12:15:47.892Z,83.80
2022-10-24T12:17:24.520Z,83.90
2022-10-24T12:18:32.473Z,84.30
2022-10-24T12:19:38.153Z,84.10
2022-10-24T12:20:42.919Z,84.50
2022-10-24T12:21:51.839Z,84.60
2022-10-24T12:22:59.152Z,85.10
2022-10-24T12:24:03.731Z,85.00
2022-10-24T12:25:19.218Z,84.70
2022-10-24T12:26:29.031Z,84.70
2022-10-24T12:27:39.677Z,85.30
2022-10-24T12:28:43.638Z,85.10
2022-10-24T12:30:03.947Z,85.40
2022-10-24T12:31:25.514Z,85.20
2022-10-24T12:32:40.749Z,85.10
2022-10-24T12:33:46.176Z,85.80
2022-10-24T12:35:25.222Z,86.00
2022-10-24T12:37:15.166Z,85.80
2022-10-24T12:39:09.146Z,85.10
2022-10-24T12:40:55.885Z,84.70
2022-10-24T12:42:00.056Z,84.60
2022-10-24T12:43:28.222Z,84.50
2022-10-24T12:44:50.542Z,84.60
2022-10-24T12:45:53.545Z,84.30
2022-10-24T12:47:01.023Z,84.50
2022-10-24T12:52:52.405Z,85.00
2022-10-24T12:57:24.577Z,86.20
2022-10-24T12:58:30.910Z,87.00
2022-10-24T12:59:36.299Z,87.60
2022-10-24T13:00:40.664Z,86.50
2022-10-24T13:01:44.474Z,87.10
2022-10-24T13:03:13.063Z,88.00
2022-10-24T13:06:06.481Z,89.00
2022-10-24T13:07:52.063Z,88.70
2022-10-24T13:09:29.413Z,89.50
2022-10-24T13:10:49.465Z,90.50
2022-10-24T13:12:11.154Z,91.20
2022-10-24T13:14:08.551Z,91.60
2022-10-24T13:15:42.322Z,91.50
2022-10-24T13:17:00.117Z,92.10
2022-10-24T13:18:24.681Z,92.00
2022-10-24T13:19:29.356Z,92.90
2022-10-24T13:20:38.613Z,93.20
2022-10-24T13:21:51.664Z,93.60
2022-10-24T13:23:07.883Z,93.70
2022-10-24T13:24:23.044Z,93.40
2022-10-24T13:25:38.144Z,94.00
2022-10-24T13:26:47.140Z,94.00
2022-10-24T13:28:36.013Z,94.30
2022-10-24T13:30:33.607Z,94.70
2022-10-24T13:31:53.758Z,95.00
2022-10-24T13:33:41.702Z,95.20
2022-10-24T13:34:53.816Z,95.60
2022-10-24T13:35:58.675Z,95.80
2022-10-24T13:37:15.766Z,95.40
2022-10-24T13:38:19.006Z,95.70
2022-10-24T13:39:29.360Z,95.90
2022-10-24T13:40:35.178Z,96.00
2022-10-24T13:41:43.022Z,96.30
2022-10-24T13:42:53.066Z,96.30
2022-10-24T13:44:02.546Z,96.30
2022-10-24T13:45:26.088Z,96.30
2022-10-24T13:46:42.183Z,96.30
2022-10-24T13:47:53.245Z,96.30
2022-10-24T13:48:57.896Z,96.30
2022-10-24T13:50:10.297Z,96.30
2022-10-24T13:51:22.847Z,96.30
2022-10-24T13:52:40.122Z,96.30
2022-10-24T13:53:50.420Z,96.30
2022-10-24T13:55:03.569Z,96.30
2022-10-24T13:56:13.630Z,96.30
2022-10-24T13:57:30.265Z,96.30
2022-10-24T13:58:44.254Z,96.30
2022-10-24T13:59:57.556Z,96.30
2022-10-24T14:01:06.919Z,96.30
2022-10-24T14:02:26.230Z,96.30
2022-10-24T14:03:36.426Z,96.30
2022-10-24T14:04:39.936Z,96.30
2022-10-24T14:05:50.608Z,96.30
2022-10-24T14:07:02.890Z,96.30
2022-10-24T14:08:09.624Z,96.30
2022-10-24T14:09:15.641Z,96.30
2022-10-24T14:10:20.839Z,96.30
2022-10-24T14:11:26.929Z,96.30
2022-10-24T14:12:32.994Z,96.30
2022-10-24T14:13:46.229Z,96.30
2022-10-24T14:14:51.861Z,96.30
2022-10-24T14:15:59.602Z,96.30
2022-10-24T14:17:23.250Z,96.30
2022-10-24T14:18:27.772Z,96.30
2022-10-24T14:19:35.299Z,96.30
2022-10-24T14:20:41.956Z,96.30
2022-10-24T14:21:46.228Z,96.30
2022-10-24T14:22:52.336Z,96.30
2022-10-24T14:23:58.536Z,96.30
2022-10-24T14:25:01.203Z,96.30
2022-10-24T14:26:08.201Z,96.30
2022-10-24T14:27:13.351Z,96.30
2022-10-24T14:28:20.608Z,96.30
2022-10-24T14:29:27.758Z,96.30
2022-10-24T14:30:34.995Z,96.30
2022-10-24T14:31:38.256Z,96.30
2022-10-24T14:32:41.858Z,96.30
2022-10-24T14:33:49.434Z,96.30
2022-10-24T14:34:56.807Z,96.30
2022-10-24T14:36:04.929Z,96.30
2022-10-24T14:37:21.172Z,96.30
2022-10-24T14:38:31.574Z,96.30
2022-10-24T14:39:36.163Z,96.30
2022-10-24T14:41:09.114Z,96.30
2022-10-24T14:42:18.490Z,96.20
2022-10-24T14:43:27.160Z,96.10
2022-10-24T14:44:30.326Z,96.00
2022-10-24T14:45:34.045Z,96.00
2022-10-24T14:46:42.016Z,95.90
2022-10-24T14:47:53.969Z,95.90
2022-10-24T14:49:19.892Z,95.80
2022-10-24T14:50:44.523Z,95.70
2022-10-24T14:51:49.512Z,95.90
2022-10-24T14:52:52.440Z,96.00
2022-10-24T14:53:57.188Z,96.30
2022-10-24T14:55:06.605Z,96.30
2022-10-24T14:56:26.004Z,96.30
2022-10-24T14:57:30.950Z,96.30
2022-10-24T14:58:38.030Z,96.00
2022-10-24T14:59:46.740Z,95.70
2022-10-24T15:00:50.554Z,95.40
2022-10-24T15:01:56.608Z,95.10
2022-10-24T15:03:01.448Z,95.00
2022-10-24T15:04:07.255Z,94.40
2022-10-24T15:05:36.587Z,94.10
2022-10-24T15:06:45.448Z,93.50
2022-10-24T15:08:20.608Z,93.20
2022-10-24T15:09:20.331Z,92.80
2022-10-24T15:10:33.596Z,92.70
2022-10-24T15:11:41.079Z,92.60
2022-10-24T15:12:53.064Z,92.50
2022-10-24T15:14:09.353Z,92.40
2022-10-24T15:15:26.904Z,92.40
2022-10-24T15:16:38.888Z,92.20
2022-10-24T15:17:41.635Z,92.50
2022-10-24T15:18:45.641Z,92.30
2022-10-24T15:19:50.459Z,92.30
2022-10-24T15:21:02.479Z,92.50
2022-10-24T15:22:06.554Z,92.60
2022-10-24T15:23:23.601Z,92.70
2022-10-24T15:24:30.851Z,93.10
2022-10-24T15:25:39.284Z,92.90
2022-10-24T15:26:46.350Z,92.90
2022-10-24T15:27:49.524Z,93.00
2022-10-24T15:29:06.323Z,93.10
2022-10-24T15:30:16.748Z,93.10
2022-10-24T15:31:22.315Z,93.20
2022-10-24T15:33:29.224Z,93.20
2022-10-24T15:34:34.600Z,93.40
2022-10-24T15:35:42.245Z,93.60
2022-10-24T15:36:46.965Z,93.60
2022-10-24T15:38:00.348Z,93.60
2022-10-24T15:39:08.152Z,93.80
2022-10-24T15:40:19.995Z,93.80
2022-10-24T15:41:23.681Z,93.90
2022-10-24T15:42:27.380Z,94.00
2022-10-24T15:43:30.257Z,93.90
2022-10-24T15:44:35.396Z,94.10
2022-10-24T15:45:38.371Z,94.10
2022-10-24T15:46:41.973Z,94.30
2022-10-24T15:47:45.953Z,94.10
2022-10-24T15:48:50.498Z,94.30
2022-10-24T15:49:56.001Z,94.30
2022-10-24T15:50:59.290Z,94.30
2022-10-24T15:52:07.275Z,94.50
2022-10-24T15:53:19.998Z,94.50
2022-10-24T15:54:27.127Z,94.60
2022-10-24T15:55:32.951Z,94.60
2022-10-24T15:56:38.729Z,94.60
2022-10-24T15:57:41.329Z,94.60
2022-10-24T15:59:57.543Z,94.70
2022-10-24T16:01:01.471Z,94.80
2022-10-24T16:02:05.655Z,94.90
2022-10-24T16:03:13.626Z,94.90
2022-10-24T16:04:21.624Z,94.80
2022-10-24T16:05:30.263Z,94.90
2022-10-24T16:06:34.848Z,94.90
2022-10-24T16:07:37.298Z,95.00
2022-10-24T16:08:42.248Z,95.00
2022-10-24T16:09:44.762Z,95.00
2022-10-24T16:10:50.850Z,95.00
2022-10-24T16:11:54.908Z,95.00
2022-10-24T16:12:57.788Z,95.00
2022-10-24T16:14:04.453Z,95.10
2022-10-24T16:15:19.486Z,95.10
2022-10-24T16:16:22.125Z,95.20
2022-10-24T16:17:25.974Z,95.20
2022-10-24T16:18:29.554Z,95.20
2022-10-24T16:19:32.170Z,95.30
2022-10-24T16:20:37.006Z,95.40
2022-10-24T16:21:42.609Z,95.40
2022-10-24T16:22:46.187Z,95.40
2022-10-24T16:23:57.895Z,95.50
2022-10-24T16:25:00.578Z,95.50
2022-10-24T16:26:04.111Z,95.60
2022-10-24T16:27:07.210Z,95.60
2022-10-24T16:28:11.258Z,95.60
2022-10-24T16:29:13.855Z,95.60
2022-10-24T16:30:19.839Z,95.60
2022-10-24T16:31:24.597Z,95.70
2022-10-24T16:32:27.159Z,95.70
2022-10-24T16:33:33.465Z,95.70
2022-10-24T16:34:37.099Z,95.70
2022-10-24T16:35:42.996Z,95.70
2022-10-24T16:36:46.636Z,95.70
2022-10-24T16:37:52.668Z,95.70
2022-10-24T16:38:57.757Z,95.70
2022-10-24T16:40:14.085Z,95.80
2022-10-24T16:41:20.359Z,95.80
2022-10-24T16:42:24.521Z,95.80
2022-10-24T16:43:28.441Z,95.80
2022-10-24T16:44:35.316Z,95.80
2022-10-24T16:45:38.352Z,95.80
2022-10-24T16:46:42.014Z,96.00
2022-10-24T16:47:45.132Z,96.00
2022-10-24T16:48:49.485Z,96.00
2022-10-24T16:49:56.540Z,96.00
2022-10-24T16:51:00.137Z,96.00
2022-10-24T16:52:02.861Z,96.00
2022-10-24T16:53:09.012Z,96.00
2022-10-24T16:54:14.727Z,96.00
2022-10-24T16:55:22.599Z,96.10
2022-10-24T16:56:31.409Z,96.10
2022-10-24T16:57:35.045Z,96.10
2022-10-24T16:58:39.160Z,96.10
2022-10-24T16:59:42.721Z,96.20
2022-10-24T17:00:47.232Z,96.10
2022-10-24T17:01:51.319Z,96.10
2022-10-24T17:02:59.680Z,96.10
2022-10-24T17:04:03.423Z,96.20
2022-10-24T17:05:16.185Z,96.20
2022-10-24T17:06:19.665Z,96.20
2022-10-24T17:07:25.927Z,96.20
2022-10-24T17:08:29.865Z,96.20
2022-10-24T17:09:37.535Z,96.30